23 mai 2022

Temps Code Temps Temp. Vue Des nuages Vent METAR/SPECI
08:55
V
18 °C 10 km+ - 130°   130° 5 kt METAR EHGR 230655Z AUTO 13005KT 100V160 9999 ////// 18/13 Q1003 BLU
08:25
V
17 °C 10 km+ - 100°   100° 4 kt METAR EHGR 230625Z AUTO 10004KT 070V130 9999 ////// 17/13 Q1003 BLU
07:55
V
16 °C 10 km+ - 110°   110° 3 kt METAR EHGR 230555Z AUTO 11003KT 070V140 9999 ////// 16/12 Q1003 BLU
07:25
V
16 °C 10 km+ - 090°   090° 3 kt METAR EHGR 230525Z AUTO 09003KT 060V120 9999 ////// 16/12 Q1003 BLU
06:55
V
15 °C 10 km+ - 070°   070° 3 kt METAR EHGR 230455Z AUTO 07003KT 040V100 9999 ////// 15/12 Q1004 BLU
06:25
V
15 °C 10 km+ - 080°   080° 3 kt METAR EHGR 230425Z AUTO 08003KT 040V110 9999 ////// 15/11 Q1004 BLU
05:55
V
15 °C 10 km+ - Var   Var 2 kt METAR EHGR 230355Z AUTO VRB02KT 9999 ////// 15/11 Q1004 BLU
05:25
V
15 °C 10 km+ - 100°   100° 2 kt METAR EHGR 230325Z AUTO 10002KT 9999 ////// 15/11 Q1005 BLU
04:55
V
15 °C 10 km+ - 070°   070° 3 kt METAR EHGR 230255Z AUTO 07003KT 040V120 9999 ////// 15/11 Q1006 BLU
04:25
V
15 °C 10 km+ - 100°   100° 3 kt METAR EHGR 230225Z AUTO 10003KT 9999 ////// 15/12 Q1006 BLU
03:55
V
15 °C 10 km+ - Var   Var 2 kt METAR EHGR 230155Z AUTO VRB02KT 9999 ////// 15/11 Q1006 BLU
03:25
V
16 °C 10 km+ - Var   Var 1 kt METAR EHGR 230125Z AUTO VRB01KT 9999 ////// 16/11 Q1007 BLU
02:55
V
16 °C 10 km+ - 110°   110° 3 kt METAR EHGR 230055Z AUTO 11003KT 080V140 9999 ////// 16/11 Q1007 BLU
02:25
V
17 °C 10 km+ - 080°   080° 4 kt METAR EHGR 230025Z AUTO 08004KT 050V120 9999 ////// 17/11 Q1007 BLU
01:55
V
17 °C 10 km+ - 100°   100° 3 kt METAR EHGR 222355Z AUTO 10003KT 070V130 9999 ////// 17/11 Q1007 BLU
01:25
V
18 °C 10 km+ - 070°   070° 4 kt METAR EHGR 222325Z AUTO 07004KT 030V110 9999 ////// 18/11 Q1008 BLU
00:55
V
18 °C 10 km+ - 090°   090° 3 kt METAR EHGR 222255Z AUTO 09003KT 050V120 9999 ////// 18/11 Q1008 BLU
00:25
V
18 °C 10 km+ - 100°   100° 4 kt METAR EHGR 222225Z AUTO 10004KT 9999 ////// 18/11 Q1008 BLU

22 mai 2022

Temps Code Temps Temp. Vue Des nuages Vent METAR/SPECI
23:55
V
18 °C 10 km+ - 080°   080° 4 kt METAR EHGR 222155Z AUTO 08004KT 050V120 9999 ////// 18/11 Q1009 BLU
23:25
V
18 °C 10 km+ - 090°   090° 4 kt METAR EHGR 222125Z AUTO 09004KT 050V120 9999 ////// 18/11 Q1009 BLU
22:55
V
18 °C 10 km+ - 090°   090° 3 kt METAR EHGR 222055Z AUTO 09003KT 9999 ////// 18/11 Q1009 BLU
22:25
V
19 °C 10 km+ - 080°   080° 3 kt METAR EHGR 222025Z AUTO 08003KT 9999 ////// 19/11 Q1009 BLU
21:55
V
18 °C 10 km+ - 080°   080° 3 kt METAR EHGR 221955Z AUTO 08003KT 050V110 9999 ////// 18/11 Q1010 BLU
21:25
V
19 °C 10 km+ - Var   Var 2 kt METAR EHGR 221925Z AUTO VRB02KT 9999 ////// 19/11 Q1010 BLU
20:55
V
21 °C 10 km+ - 070°   070° 1 kt METAR EHGR 221855Z AUTO 07001KT 9999 ////// 21/11 Q1010 BLU
20:25
V
21 °C 10 km+ - Var   Var 2 kt METAR EHGR 221825Z AUTO VRB02KT 9999 ////// 21/11 Q1010 BLU
19:55
V
22 °C 10 km+ - Var   Var 2 kt METAR EHGR 221755Z AUTO VRB02KT 9999 ////// 22/10 Q1011 BLU
19:25
V
22 °C 10 km+ - 120°   120° 3 kt METAR EHGR 221725Z AUTO 12003KT 090V170 9999 ////// 22/09 Q1011 BLU
18:55
V
23 °C 10 km+ - 120°   120° 3 kt METAR EHGR 221655Z AUTO 12003KT 070V210 9999 ////// 23/10 Q1011 BLU
18:25
V
23 °C 10 km+ - 120°   120° 6 kt METAR EHGR 221625Z AUTO 12006KT 060V150 9999 ////// 23/10 Q1011 BLU
17:55
V
23 °C 10 km+ - 130°   130° 5 kt METAR EHGR 221555Z AUTO 13005KT 050V190 9999 ////// 23/10 Q1012 BLU
17:25
V
23 °C 10 km+ - 140°   140° 5 kt METAR EHGR 221525Z AUTO 14005KT 060V230 9999 ////// 23/10 Q1012 BLU
16:55
V
22 °C 10 km+ - 130°   130° 6 kt METAR EHGR 221455Z AUTO 13006KT 050V180 9999 ////// 22/10 Q1012 BLU
16:25
V
22 °C 10 km+ - 110°   110° 4 kt METAR EHGR 221425Z AUTO 11004KT 020V160 9999 ////// 22/10 Q1013 BLU
15:55
V
22 °C 10 km+ - 150°   150° 7 kt METAR EHGR 221355Z AUTO 15007KT 110V200 9999 ////// 22/09 Q1013 BLU
15:25
V
22 °C 10 km+ - Var   Var 3 kt METAR EHGR 221325Z AUTO VRB03KT 9999 ////// 22/10 Q1013 BLU
14:55
V
21 °C 10 km+ - 120°   120° 4 kt METAR EHGR 221255Z AUTO 12004KT 040V210 9999 ////// 21/11 Q1014 BLU
14:25
V
21 °C 10 km+ - Var   Var 5 kt METAR EHGR 221225Z AUTO VRB05KT 9999 ////// 21/09 Q1014 BLU
13:55
V
20 °C 10 km+ - 170°   170° 5 kt METAR EHGR 221155Z AUTO 17005KT 110V250 9999 ////// 20/10 Q1015 BLU
13:38
V
20 °C 10 km+ - 160°   160° 4 kt METAR EHGR 221138Z AUTO 16004KT 080V250 9999 ////// 20/11 Q1015 BLU
13:25
V
20 °C 10 km+ - 120°   120° 4 kt METAR EHGR 221125Z AUTO 12004KT 050V200 9999 ////// 20/10 Q1015 BLU
13:14
V
20 °C 10 km+ - 140°   140° 5 kt METAR EHGR 221114Z AUTO 14005KT 090V260 9999 ////// 20/11 Q1015 BLU
13:07
V
20 °C 8 km - 160°   160° 6 kt METAR EHGR 221107Z AUTO 16006KT 090V260 8000 HZ ////// 20/10 Q1015 BLU
13:03
I
20 °C 3,1 km - Var   Var 5 kt METAR EHGR 221103Z AUTO VRB05KT 3100 HZ ////// 20/10 Q1015 YLO
12:55
V
20 °C 10 km+ - 120°   120° 6 kt METAR EHGR 221055Z AUTO 12006KT 050V220 9999 ////// 20/10 Q1016 BLU
12:25
V
20 °C 10 km+ - 110°   110° 5 kt METAR EHGR 221025Z AUTO 11005KT 050V220 9999 ////// 20/10 Q1016 BLU
12:08
V
20 °C 10 km+ - Var   Var 5 kt METAR EHGR 221008Z AUTO VRB05KT 9999 ////// 20/10 Q1016 BLU
12:06
M
19 °C 7 km - Var   Var 4 kt METAR EHGR 221006Z AUTO VRB04KT 7000 HZ ////// 19/10 Q1016 WHT
12:03
I
19 °C 3,3 km - 180°   180° 4 kt METAR EHGR 221003Z AUTO 18004KT 100V250 3300 HZ ////// 19/09 Q1016 YLO
11:55
V
19 °C 10 km+ - Var   Var 4 kt METAR EHGR 220955Z AUTO VRB04KT 9999 ////// 19/09 Q1016 BLU
11:25
V
18 °C 10 km+ - 080°   080° 4 kt METAR EHGR 220925Z AUTO 08004KT 350V120 9999 ////// 18/09 Q1016 BLU
10:55
V
18 °C 10 km+ - Var   Var 2 kt METAR EHGR 220855Z AUTO VRB02KT 9999 ////// 18/08 Q1017 BLU
10:25
V
18 °C 10 km+ - Var   Var 2 kt METAR EHGR 220825Z AUTO VRB02KT 9999 ////// 18/09 Q1017 BLU
09:55
V
17 °C 10 km+ - Var   Var 1 kt METAR EHGR 220755Z AUTO VRB01KT 9999 ////// 17/09 Q1017 BLU
09:25
V
16 °C 10 km+ - 100°   100° 3 kt METAR EHGR 220725Z AUTO 10003KT 040V150 9999 ////// 16/11 Q1017 BLU
08:55
V
15 °C 10 km+ - 140°   140° 3 kt METAR EHGR 220655Z AUTO 14003KT 090V200 9999 ////// 15/11 Q1018 BLU
08:25
V
14 °C 10 km+ - Var   Var 2 kt METAR EHGR 220625Z AUTO VRB02KT 9999 ////// 14/10 Q1018 BLU
07:55
V
12 °C 10 km+ - Var   Var 2 kt METAR EHGR 220555Z AUTO VRB02KT 9999 ////// 12/10 Q1017 BLU
07:25
V
11 °C 10 km+ - Var   Var 2 kt METAR EHGR 220525Z AUTO VRB02KT 9999 ////// 11/10 Q1017 BLU
06:55
V
9 °C 10 km+ - Var   000° 0 kt METAR EHGR 220455Z AUTO 00000KT 9999 ////// 09/08 Q1017 BLU
06:25
V
8 °C 10 km+ - Var   000° 0 kt METAR EHGR 220425Z AUTO 00000KT 9999 ////// 08/08 Q1018 BLU
05:55
V
7 °C 10 km+ - Var   Var 1 kt METAR EHGR 220355Z AUTO VRB01KT 9999 ////// 07/07 Q1018 BLU
05:25
V
8 °C 10 km+ - Var   Var 1 kt METAR EHGR 220325Z AUTO VRB01KT 9999 ////// 08/08 Q1018 BLU
04:55
V
9 °C 10 km+ - Var   Var 1 kt METAR EHGR 220255Z AUTO VRB01KT 9999 ////// 09/08 Q1018 BLU
04:25
V
9 °C 10 km+ - 110°   110° 2 kt METAR EHGR 220225Z AUTO 11002KT 9999 ////// 09/08 Q1018 BLU
03:55
V
9 °C 10 km+ - 250°   250° 1 kt METAR EHGR 220155Z AUTO 25001KT 9999 ////// 09/08 Q1018 BLU
03:25
V
9 °C 10 km+ - 040°   040° 1 kt METAR EHGR 220125Z AUTO 04001KT 9999 ////// 09/09 Q1019 BLU
02:55
V
10 °C 10 km+ - 110°   110° 1 kt METAR EHGR 220055Z AUTO 11001KT 9999 ////// 10/09 Q1019 BLU
02:25
V
9 °C 10 km+ - 150°   150° 1 kt METAR EHGR 220025Z AUTO 15001KT 9999 ////// 09/08 Q1019 BLU
01:55
V
10 °C 10 km+ - Var   000° 0 kt METAR EHGR 212355Z AUTO 00000KT 9999 ////// 10/09 Q1019 BLU
01:25
V
9 °C 10 km+ - 090°   090° 1 kt METAR EHGR 212325Z AUTO 09001KT 9999 ////// 09/08 Q1019 BLU
00:55
V
9 °C 10 km+ - 140°   140° 1 kt METAR EHGR 212255Z AUTO 14001KT 9999 ////// 09/08 Q1020 BLU
00:25
V
10 °C 10 km+ - 260°   260° 1 kt METAR EHGR 212225Z AUTO 26001KT 9999 ////// 10/09 Q1020 BLU

21 mai 2022

Temps Code Temps Temp. Vue Des nuages Vent METAR/SPECI
23:55
V
10 °C 10 km+ - Var   000° 0 kt METAR EHGR 212155Z AUTO 00000KT 9999 ////// 10/09 Q1020 BLU
23:25
V
11 °C 10 km+ - Var   000° 0 kt METAR EHGR 212125Z AUTO 00000KT 9999 ////// 11/09 Q1020 BLU
22:55
V
12 °C 10 km+ - Var   Var 1 kt METAR EHGR 212055Z AUTO VRB01KT 9999 ////// 12/09 Q1020 BLU
22:25
V
12 °C 10 km+ - 240°   240° 1 kt METAR EHGR 212025Z AUTO 24001KT 9999 ////// 12/09 Q1020 BLU
21:55
V
13 °C 10 km+ - Var   Var 2 kt METAR EHGR 211955Z AUTO VRB02KT 9999 ////// 13/09 Q1020 BLU
21:25
V
16 °C 10 km+ - Var   Var 2 kt METAR EHGR 211925Z AUTO VRB02KT 9999 ////// 16/08 Q1020 BLU
20:55
V
16 °C 10 km+ - 320°   320° 5 kt METAR EHGR 211855Z AUTO 32005KT 290V010 9999 ////// 16/08 Q1020 BLU
20:25
V
17 °C 10 km+ - 300°   300° 5 kt METAR EHGR 211825Z AUTO 30005KT 250V340 9999 ////// 17/09 Q1020 BLU
19:55
V
17 °C 10 km+ - 310°   310° 6 kt METAR EHGR 211755Z AUTO 31006KT 260V360 9999 ////// 17/08 Q1020 BLU
19:25
V
18 °C 10 km+ - 320°   320° 6 kt METAR EHGR 211725Z AUTO 32006KT 270V360 9999 ////// 18/10 Q1020 BLU
18:55
V
18 °C 10 km+ - 300°   300° 7 kt METAR EHGR 211655Z AUTO 30007KT 260V350 9999 ////// 18/09 Q1020 BLU
18:25
V
18 °C 10 km+ - 300°   300° 7 kt METAR EHGR 211625Z AUTO 30007KT 240V340 9999 ////// 18/10 Q1020 BLU
17:55
V
19 °C 10 km+ - 300°   300° 8 kt METAR EHGR 211555Z AUTO 30008KT 260V330 9999 ////// 19/10 Q1021 BLU
17:25
V
18 °C 10 km+ - 280°   280° 8 kt METAR EHGR 211525Z AUTO 28008KT 230V330 9999 ////// 18/09 Q1021 BLU
16:55
V
19 °C 10 km+ - 290°   290° 9 kt METAR EHGR 211455Z AUTO 29009KT 250V340 9999 ////// 19/09 Q1021 BLU
16:25
V
19 °C 10 km+ - 290°   290° 9 kt METAR EHGR 211425Z AUTO 29009KT 250V350 9999 ////// 19/09 Q1021 BLU
15:55
V
19 °C 10 km+ - 270°   270° 10 kt METAR EHGR 211355Z AUTO 27010KT 220V320 9999 ////// 19/08 Q1021 BLU
15:25
V
19 °C 10 km+ - 270°   270° 12 kt METAR EHGR 211325Z AUTO 27012KT 240V320 9999 ////// 19/09 Q1021 BLU
14:55
V
18 °C 10 km+ - 270°   270° 11 kt METAR EHGR 211255Z AUTO 27011KT 220V310 9999 ////// 18/10 Q1021 BLU
14:25
V
18 °C 10 km+ - 260°   260° 11 kt METAR EHGR 211225Z AUTO 26011KT 220V300 9999 ////// 18/10 Q1022 BLU
13:55
V
18 °C 10 km+ - 270°   270° 12 kt METAR EHGR 211155Z AUTO 27012KT 230V300 9999 ////// 18/09 Q1022 BLU
13:25
V
18 °C 10 km+ - 270°   270° 11 kt METAR EHGR 211125Z AUTO 27011KT 230V310 9999 ////// 18/10 Q1022 BLU
12:55
V
17 °C 10 km+ - 250°   250° 12 kt METAR EHGR 211055Z AUTO 25012KT 200V300 9999 ////// 17/11 Q1022 BLU
12:25
V
18 °C 10 km+ - 270°   270° 13 kt METAR EHGR 211025Z AUTO 27013KT 230V310 9999 ////// 18/11 Q1021 BLU
11:55
V
16 °C 10 km+ - 250°   250° 11 kt METAR EHGR 210955Z AUTO 25011KT 200V310 9999 ////// 16/10 Q1021 BLU
11:25
V
16 °C 10 km+ - 240°   240° 11 kt METAR EHGR 210925Z AUTO 24011KT 200V300 9999 ////// 16/11 Q1021 BLU
10:55
V
16 °C 10 km+ - 260°   260° 10 kt METAR EHGR 210855Z AUTO 26010KT 220V300 9999 ////// 16/11 Q1021 BLU
10:25
V
16 °C 10 km+ - 240°   240° 12 kt METAR EHGR 210825Z AUTO 24012KT 210V280 9999 ////// 16/11 Q1021 BLU
09:55
V
15 °C 10 km+ - 240°   240° 13 kt METAR EHGR 210755Z AUTO 24013KT 9999 ////// 15/11 Q1021 BLU
09:25
V
14 °C 10 km+ - 240°   240° 10 kt METAR EHGR 210725Z AUTO 24010KT 210V290 9999 ////// 14/11 Q1021 BLU
08:55
V
14 °C 10 km+ - 240°   240° 9 kt METAR EHGR 210655Z AUTO 24009KT 200V280 9999 ////// 14/11 Q1021 BLU
08:25
V
14 °C 10 km+ - 230°   230° 9 kt METAR EHGR 210625Z AUTO 23009KT 200V270 9999 ////// 14/11 Q1021 BLU
07:55
V
13 °C 10 km+ - 230°   230° 8 kt METAR EHGR 210555Z AUTO 23008KT 190V270 9999 ////// 13/11 Q1020 BLU
07:25
V
12 °C 10 km+ - 230°   230° 8 kt METAR EHGR 210525Z AUTO 23008KT 200V260 9999 ////// 12/11 Q1020 BLU
06:55
V
12 °C 10 km+ - 230°   230° 7 kt METAR EHGR 210455Z AUTO 23007KT 210V270 9999 ////// 12/10 Q1020 BLU
Données plus anciennes

Télécharge notre application

Un accès facile à toute la météo aéronautique sur ton téléphone portable et ta tablette.
Avec de nombreuses fonctionnalités non disponibles sur le site Web, comme la prise en charge hors ligne et une liste personnelle d'aéroports.

Nous et des tiers suivons ton comportement sur Internet sur notre site Web à l'aide de cookies. Si tu continues, nous supposons que tu acceptes notre politique en matière de cookies. Apprendre plus